createdAt,value
2023-08-26T00:01:14.604Z,15.13
2023-08-26T00:03:41.807Z,14.93
2023-08-26T00:06:08.980Z,16.47
2023-08-26T00:08:36.065Z,16.13
2023-08-26T00:11:04.612Z,15.90
2023-08-26T00:13:31.715Z,15.23
2023-08-26T00:15:58.893Z,14.87
2023-08-26T00:18:26.052Z,13.73
2023-08-26T00:20:53.183Z,13.43
2023-08-26T00:23:20.424Z,14.10
2023-08-26T00:25:47.552Z,13.73
2023-08-26T00:28:16.068Z,13.10
2023-08-26T00:30:43.171Z,14.23
2023-08-26T00:33:10.354Z,12.73
2023-08-26T00:35:38.632Z,13.97
2023-08-26T00:38:06.069Z,13.83
2023-08-26T00:40:36.614Z,12.00
2023-08-26T00:43:08.446Z,12.57
2023-08-26T00:45:37.084Z,13.83
2023-08-26T00:48:04.428Z,10.93
2023-08-26T00:50:31.651Z,12.37
2023-08-26T00:52:58.967Z,12.13
2023-08-26T00:55:26.110Z,11.27
2023-08-26T00:57:53.291Z,12.17
2023-08-26T01:00:20.703Z,11.33
2023-08-26T01:02:49.515Z,12.73
2023-08-26T01:05:16.820Z,12.87
2023-08-26T01:07:44.361Z,12.13
2023-08-26T01:10:12.004Z,11.67
2023-08-26T01:12:42.153Z,14.70
2023-08-26T01:15:11.091Z,15.10
2023-08-26T01:17:39.394Z,14.57
2023-08-26T01:20:09.446Z,14.33
2023-08-26T01:22:38.384Z,10.80
2023-08-26T01:25:08.183Z,10.50
2023-08-26T01:27:35.325Z,8.50
2023-08-26T01:30:02.726Z,8.93
2023-08-26T01:32:34.848Z,8.47
2023-08-26T01:35:04.149Z,8.37
2023-08-26T01:37:31.692Z,7.20
2023-08-26T01:40:00.727Z,6.53
2023-08-26T01:42:31.183Z,7.83
2023-08-26T01:44:58.452Z,6.57
2023-08-26T01:47:25.625Z,7.23
2023-08-26T01:49:52.789Z,6.90
2023-08-26T01:52:20.041Z,6.43
2023-08-26T01:54:47.178Z,5.70
2023-08-26T01:57:14.241Z,6.00
2023-08-26T01:59:42.757Z,6.90
2023-08-26T02:02:10.022Z,6.23
2023-08-26T02:04:38.870Z,6.43
2023-08-26T02:07:06.236Z,5.53
2023-08-26T02:09:33.337Z,5.70
2023-08-26T02:12:00.467Z,4.87
2023-08-26T02:14:27.589Z,4.40
2023-08-26T02:16:56.001Z,4.40
2023-08-26T02:19:23.670Z,4.70
2023-08-26T02:21:50.803Z,4.37
2023-08-26T02:24:23.841Z,4.00
2023-08-26T02:26:50.967Z,3.47
2023-08-26T02:29:18.115Z,3.80
2023-08-26T02:31:45.284Z,3.57
2023-08-26T02:34:13.705Z,3.60
2023-08-26T02:36:40.844Z,3.33
2023-08-26T02:39:08.021Z,3.90
2023-08-26T02:41:35.162Z,3.00
2023-08-26T02:44:02.317Z,3.30
2023-08-26T02:46:29.420Z,2.70
2023-08-26T02:48:56.550Z,3.33
2023-08-26T02:51:25.001Z,3.10
2023-08-26T02:53:52.121Z,4.03
2023-08-26T02:56:20.057Z,3.30
2023-08-26T02:58:47.246Z,3.43
2023-08-26T03:01:14.361Z,2.93
2023-08-26T03:03:41.519Z,3.77
2023-08-26T03:06:08.650Z,3.30
2023-08-26T03:08:37.058Z,3.57
2023-08-26T03:11:05.543Z,2.57
2023-08-26T03:13:32.768Z,3.50
2023-08-26T03:16:07.033Z,3.27
2023-08-26T03:18:34.174Z,2.93
2023-08-26T03:21:03.494Z,2.80
2023-08-26T03:23:30.638Z,2.60
2023-08-26T03:25:59.178Z,2.90
2023-08-26T03:28:26.287Z,2.77
2023-08-26T03:30:53.461Z,2.70
2023-08-26T03:33:20.619Z,3.23
2023-08-26T03:35:47.679Z,2.43
2023-08-26T03:38:14.830Z,3.53
2023-08-26T03:40:41.965Z,2.87
2023-08-26T03:43:10.479Z,3.70
2023-08-26T03:45:37.599Z,2.90
2023-08-26T03:48:06.240Z,3.00
2023-08-26T03:50:33.442Z,3.70
2023-08-26T03:53:00.668Z,3.20
2023-08-26T03:55:27.730Z,3.30
2023-08-26T03:57:57.067Z,3.50
2023-08-26T04:00:25.831Z,3.60
2023-08-26T04:02:52.918Z,3.60
2023-08-26T04:05:20.303Z,3.03
2023-08-26T04:07:47.459Z,3.27
2023-08-26T04:10:14.627Z,3.47
2023-08-26T04:12:42.494Z,3.60
2023-08-26T04:15:09.735Z,3.30
2023-08-26T04:17:38.284Z,2.93
2023-08-26T04:20:06.016Z,3.10
2023-08-26T04:22:33.088Z,3.60
2023-08-26T04:25:00.214Z,3.17
2023-08-26T04:27:27.442Z,3.27
2023-08-26T04:29:54.596Z,3.00
2023-08-26T04:32:21.693Z,3.50
2023-08-26T04:34:51.367Z,2.70
2023-08-26T04:37:18.436Z,2.60
2023-08-26T04:39:46.887Z,2.20
2023-08-26T04:42:13.964Z,3.00
2023-08-26T04:44:41.146Z,2.93
2023-08-26T04:47:08.322Z,3.33
2023-08-26T04:49:35.456Z,3.27
2023-08-26T04:52:04.031Z,2.70
2023-08-26T04:54:32.081Z,3.20
2023-08-26T04:56:59.154Z,2.90
2023-08-26T04:59:26.268Z,3.47
2023-08-26T05:01:53.358Z,3.03
2023-08-26T05:04:20.449Z,2.57
2023-08-26T05:06:47.573Z,2.43
2023-08-26T05:09:17.082Z,2.60
2023-08-26T05:11:45.313Z,3.00
2023-08-26T05:14:12.402Z,3.13
2023-08-26T05:16:39.572Z,2.80
2023-08-26T05:19:06.744Z,2.90
2023-08-26T05:21:33.867Z,2.30
2023-08-26T05:24:01.181Z,2.60
2023-08-26T05:26:29.599Z,2.43
2023-08-26T05:28:57.019Z,2.63
2023-08-26T05:31:24.650Z,2.20
2023-08-26T05:33:52.091Z,2.33
2023-08-26T05:36:19.183Z,2.47
2023-08-26T05:38:46.268Z,3.00
2023-08-26T05:41:13.518Z,1.90
2023-08-26T05:43:41.991Z,2.47
2023-08-26T05:46:09.157Z,2.17
2023-08-26T05:48:36.281Z,2.10
2023-08-26T05:51:04.250Z,2.07
2023-08-26T05:53:31.412Z,2.43
2023-08-26T05:55:58.569Z,2.20
2023-08-26T05:58:25.670Z,2.70
2023-08-26T06:00:54.173Z,2.30
2023-08-26T06:03:21.342Z,3.10
2023-08-26T06:05:48.400Z,2.40
2023-08-26T06:08:15.554Z,2.13
2023-08-26T06:10:42.866Z,2.23
2023-08-26T06:13:10.700Z,2.30
2023-08-26T06:15:38.895Z,2.20
2023-08-26T06:18:07.767Z,2.30
2023-08-26T06:20:34.895Z,2.60
2023-08-26T06:23:02.093Z,2.30
2023-08-26T06:25:29.525Z,1.93
2023-08-26T06:27:56.918Z,1.80
2023-08-26T06:30:24.155Z,1.90
2023-08-26T06:32:51.480Z,2.00
2023-08-26T06:35:20.600Z,1.67
2023-08-26T06:37:47.745Z,1.90
2023-08-26T06:40:15.382Z,1.80
2023-08-26T06:42:42.798Z,2.07
2023-08-26T06:45:15.679Z,2.23
2023-08-26T06:47:44.835Z,1.87
2023-08-26T06:50:11.968Z,2.00
2023-08-26T06:52:40.351Z,1.40
2023-08-26T06:55:07.704Z,2.10
2023-08-26T06:57:34.832Z,1.67
2023-08-26T07:00:01.981Z,1.70
2023-08-26T07:02:29.094Z,1.60
2023-08-26T07:04:56.203Z,2.30
2023-08-26T07:07:23.310Z,1.90
2023-08-26T07:09:51.804Z,1.50
2023-08-26T07:12:18.921Z,1.67
2023-08-26T07:14:46.059Z,2.13
2023-08-26T07:17:13.963Z,1.87
2023-08-26T07:19:41.090Z,1.90
2023-08-26T07:22:08.179Z,2.10
2023-08-26T07:24:35.252Z,1.90
2023-08-26T07:27:03.821Z,2.70
2023-08-26T07:29:32.475Z,1.63
2023-08-26T07:31:59.540Z,2.10
2023-08-26T07:34:26.668Z,1.90
2023-08-26T07:36:53.779Z,1.70
2023-08-26T07:39:20.892Z,2.17
2023-08-26T07:41:47.970Z,1.60
2023-08-26T07:44:16.385Z,1.80
2023-08-26T07:49:13.631Z,1.90
2023-08-26T07:51:40.764Z,1.83
2023-08-26T07:54:07.918Z,2.00
2023-08-26T07:56:34.989Z,1.70
2023-08-26T07:59:02.122Z,1.70
2023-08-26T08:01:30.645Z,2.33
2023-08-26T08:03:57.949Z,1.60
2023-08-26T08:06:25.096Z,1.80
2023-08-26T08:08:52.581Z,1.50
2023-08-26T08:11:19.650Z,1.50
2023-08-26T08:13:46.798Z,1.63
2023-08-26T08:16:13.970Z,1.60
2023-08-26T08:18:42.419Z,1.53
2023-08-26T08:21:09.511Z,1.50
2023-08-26T08:23:36.739Z,2.03
2023-08-26T08:26:03.868Z,1.60
2023-08-26T08:28:30.912Z,1.60
2023-08-26T08:30:58.030Z,1.30
2023-08-26T08:33:25.178Z,1.37
2023-08-26T08:35:53.597Z,1.73
2023-08-26T08:38:20.649Z,1.83
2023-08-26T08:40:47.875Z,1.63
2023-08-26T08:43:15.479Z,1.70
2023-08-26T08:45:43.379Z,1.87
2023-08-26T08:48:10.803Z,1.33
2023-08-26T08:50:38.134Z,2.07
2023-08-26T08:53:07.493Z,2.00
2023-08-26T08:55:34.662Z,1.30
2023-08-26T08:58:02.836Z,1.40
2023-08-26T09:00:31.157Z,1.80
2023-08-26T09:02:59.692Z,1.50
2023-08-26T09:05:27.274Z,1.40
2023-08-26T09:07:55.019Z,1.83
2023-08-26T09:10:24.179Z,2.10
2023-08-26T09:12:51.269Z,1.50
2023-08-26T09:15:18.459Z,1.17
2023-08-26T09:17:46.046Z,1.67
2023-08-26T09:20:13.310Z,1.30
2023-08-26T09:22:40.409Z,1.37
2023-08-26T09:25:07.673Z,1.40
2023-08-26T09:27:41.894Z,1.40
2023-08-26T09:30:09.507Z,1.20
2023-08-26T09:32:37.112Z,1.00
2023-08-26T09:35:11.156Z,1.50
2023-08-26T09:37:38.306Z,1.30
2023-08-26T09:40:05.930Z,1.20
2023-08-26T09:42:33.169Z,1.30
2023-08-26T09:45:01.551Z,1.37
2023-08-26T09:47:29.409Z,1.53
2023-08-26T09:49:56.591Z,1.40
2023-08-26T09:52:24.760Z,1.70
2023-08-26T09:54:53.314Z,1.37
2023-08-26T09:57:20.447Z,1.20
2023-08-26T09:59:47.907Z,1.80
2023-08-26T10:02:19.528Z,1.27
2023-08-26T10:04:47.610Z,1.40
2023-08-26T10:07:14.697Z,1.20
2023-08-26T10:09:45.209Z,1.40
2023-08-26T10:12:14.192Z,1.00
2023-08-26T10:14:42.261Z,1.20
2023-08-26T10:17:09.707Z,1.13
2023-08-26T10:19:38.451Z,1.53
2023-08-26T10:22:06.192Z,1.10
2023-08-26T10:24:33.241Z,1.10
2023-08-26T10:27:00.393Z,1.10
2023-08-26T10:29:28.583Z,1.23
2023-08-26T10:31:55.678Z,1.30
2023-08-26T10:34:22.731Z,1.40
2023-08-26T10:36:57.789Z,1.10
2023-08-26T10:39:25.594Z,1.10
2023-08-26T10:42:11.659Z,1.37
2023-08-26T10:44:38.806Z,1.10
2023-08-26T10:47:06.061Z,1.20
2023-08-26T10:49:33.195Z,1.10
2023-08-26T10:52:09.770Z,1.10
2023-08-26T10:54:36.884Z,1.23
2023-08-26T10:57:04.841Z,1.10
2023-08-26T10:59:35.789Z,1.20
2023-08-26T11:02:03.133Z,1.00
2023-08-26T11:04:30.262Z,0.90
2023-08-26T11:06:57.700Z,1.00
2023-08-26T11:09:26.141Z,1.20
2023-08-26T11:11:53.237Z,1.10
2023-08-26T11:14:30.869Z,1.00
2023-08-26T11:16:58.764Z,1.27
2023-08-26T11:19:26.397Z,0.97
2023-08-26T11:21:53.519Z,1.40
2023-08-26T11:24:30.587Z,1.20
2023-08-26T11:26:57.658Z,0.90
2023-08-26T11:29:24.767Z,1.37
2023-08-26T11:31:51.876Z,0.90
2023-08-26T11:34:22.678Z,1.10
2023-08-26T11:36:52.064Z,1.03
2023-08-26T11:39:19.206Z,1.10
2023-08-26T11:41:47.679Z,1.20
2023-08-26T11:44:15.358Z,1.20
2023-08-26T11:46:42.499Z,1.10
2023-08-26T11:49:10.816Z,1.10
2023-08-26T11:51:40.331Z,0.90
2023-08-26T11:54:08.167Z,1.07
2023-08-26T11:56:35.372Z,1.20
2023-08-26T11:59:03.887Z,1.27
2023-08-26T12:01:30.994Z,1.33
2023-08-26T12:03:59.152Z,1.20
2023-08-26T12:06:28.329Z,1.27
2023-08-26T12:08:56.881Z,1.50
2023-08-26T12:11:23.952Z,1.70
2023-08-26T12:13:51.042Z,1.37
2023-08-26T12:16:19.538Z,1.13
2023-08-26T12:18:46.621Z,1.40
2023-08-26T12:21:13.691Z,1.27
2023-08-26T12:23:40.824Z,1.63
2023-08-26T12:26:11.510Z,2.13
2023-08-26T12:28:40.844Z,1.50
2023-08-26T12:31:07.979Z,0.90
2023-08-26T12:33:45.822Z,1.20
2023-08-26T12:36:21.302Z,1.53
2023-08-26T12:38:48.619Z,1.50
2023-08-26T12:41:15.722Z,1.40
2023-08-26T12:43:42.914Z,1.40
2023-08-26T12:46:10.053Z,1.77
2023-08-26T12:51:08.781Z,1.25
2023-08-26T12:53:35.941Z,1.25
2023-08-26T12:56:03.062Z,1.40
2023-08-26T12:58:30.190Z,1.73
2023-08-26T13:00:57.280Z,1.67
2023-08-26T13:03:24.465Z,1.70
2023-08-26T13:05:52.926Z,1.30
2023-08-26T13:08:20.004Z,1.70
2023-08-26T13:10:47.125Z,1.47
2023-08-26T13:13:14.252Z,1.17
2023-08-26T13:15:41.376Z,1.20
2023-08-26T13:18:08.757Z,1.10
2023-08-26T13:20:35.907Z,1.10
2023-08-26T13:23:04.485Z,1.70
2023-08-26T13:25:31.644Z,1.30
2023-08-26T13:27:59.058Z,1.37
2023-08-26T13:30:26.411Z,1.60
2023-08-26T13:32:53.608Z,1.77
2023-08-26T13:35:20.725Z,1.60
2023-08-26T13:37:47.801Z,1.13
2023-08-26T13:40:16.281Z,1.33
2023-08-26T13:42:43.392Z,1.60
2023-08-26T13:45:10.584Z,1.60
2023-08-26T13:47:37.724Z,1.40
2023-08-26T13:50:05.111Z,1.80
2023-08-26T13:52:32.254Z,1.27
2023-08-26T13:54:59.381Z,1.20
2023-08-26T13:57:27.777Z,1.77
2023-08-26T13:59:54.864Z,1.63
2023-08-26T14:02:22.040Z,1.23
2023-08-26T14:04:49.151Z,1.27
2023-08-26T14:07:16.274Z,1.23
2023-08-26T14:09:43.431Z,1.30
2023-08-26T14:12:10.543Z,1.20
2023-08-26T14:14:39.010Z,1.30
2023-08-26T14:17:06.049Z,1.30
2023-08-26T14:19:33.126Z,1.20
2023-08-26T14:22:00.183Z,1.20
2023-08-26T14:24:27.285Z,1.20
2023-08-26T14:26:54.478Z,1.50
2023-08-26T14:29:21.610Z,1.30
2023-08-26T14:31:50.068Z,1.27
2023-08-26T14:34:17.186Z,1.27
2023-08-26T14:36:44.274Z,1.10
2023-08-26T14:39:11.425Z,1.58
2023-08-26T14:41:38.514Z,1.23
2023-08-26T14:44:06.260Z,1.08
2023-08-26T14:46:33.456Z,1.40
2023-08-26T14:49:01.973Z,1.50
2023-08-26T14:51:29.023Z,1.27
2023-08-26T14:53:56.109Z,1.42
2023-08-26T14:56:23.203Z,1.40
2023-08-26T14:58:50.396Z,1.23
2023-08-26T15:01:17.502Z,1.87
2023-08-26T15:03:44.724Z,1.63
2023-08-26T15:06:13.185Z,1.52
2023-08-26T15:08:40.265Z,1.40
2023-08-26T15:11:07.349Z,1.40
2023-08-26T15:13:34.479Z,1.63
2023-08-26T15:16:01.658Z,1.50
2023-08-26T15:18:28.814Z,1.30
2023-08-26T15:20:55.901Z,1.50
2023-08-26T15:23:24.363Z,1.25
2023-08-26T15:25:51.463Z,1.37
2023-08-26T15:28:18.597Z,1.13
2023-08-26T15:30:48.617Z,1.20
2023-08-26T15:33:15.696Z,1.37
2023-08-26T15:35:48.361Z,1.57
2023-08-26T15:38:15.489Z,1.20
2023-08-26T15:40:43.987Z,1.10
2023-08-26T15:43:11.064Z,1.20
2023-08-26T15:45:40.298Z,1.50
2023-08-26T15:48:07.771Z,1.40
2023-08-26T15:50:35.145Z,1.20
2023-08-26T15:53:02.266Z,1.00
2023-08-26T15:55:29.377Z,1.27
2023-08-26T15:57:58.330Z,1.03
2023-08-26T16:00:25.622Z,1.37
2023-08-26T16:02:52.780Z,1.50
2023-08-26T16:05:19.926Z,1.20
2023-08-26T16:07:47.025Z,1.80
2023-08-26T16:10:14.109Z,1.60
2023-08-26T16:12:41.252Z,1.37
2023-08-26T16:15:10.340Z,1.40
2023-08-26T16:17:37.510Z,1.40
2023-08-26T16:20:04.945Z,1.40
2023-08-26T16:22:32.008Z,1.50
2023-08-26T16:24:59.140Z,1.50
2023-08-26T16:27:26.270Z,1.40
2023-08-26T16:29:53.348Z,1.70
2023-08-26T16:32:21.778Z,1.47
2023-08-26T16:34:48.877Z,1.40
2023-08-26T16:37:16.015Z,1.80
2023-08-26T16:39:43.130Z,2.00
2023-08-26T16:42:10.222Z,1.50
2023-08-26T16:44:37.292Z,1.63
2023-08-26T16:47:04.661Z,1.90
2023-08-26T16:49:33.219Z,1.90
2023-08-26T16:52:00.293Z,2.07
2023-08-26T16:54:27.392Z,1.53
2023-08-26T16:56:54.472Z,1.53
2023-08-26T16:59:21.667Z,1.57
2023-08-26T17:01:49.529Z,1.47
2023-08-26T17:04:16.678Z,1.53
2023-08-26T17:06:45.175Z,1.30
2023-08-26T17:09:12.277Z,1.43
2023-08-26T17:11:39.352Z,1.47
2023-08-26T17:14:06.520Z,1.73
2023-08-26T17:16:33.782Z,1.70
2023-08-26T17:19:00.932Z,1.50
2023-08-26T17:21:28.056Z,1.40
2023-08-26T17:23:56.494Z,1.60
2023-08-26T17:26:23.592Z,1.83
2023-08-26T17:28:50.682Z,1.67
2023-08-26T17:31:17.830Z,1.40
2023-08-26T17:33:44.962Z,1.73
2023-08-26T17:36:12.058Z,1.37
2023-08-26T17:38:39.079Z,1.23
2023-08-26T17:41:07.492Z,1.37
2023-08-26T17:43:35.538Z,1.10
2023-08-26T17:46:02.674Z,1.40
2023-08-26T17:48:29.760Z,1.30
2023-08-26T17:50:56.835Z,1.30
2023-08-26T17:53:23.894Z,1.50
2023-08-26T17:55:51.188Z,1.50
2023-08-26T17:58:19.654Z,1.03
2023-08-26T18:00:46.746Z,1.03
2023-08-26T18:03:14.066Z,1.30
2023-08-26T18:05:41.198Z,1.27
2023-08-26T18:08:08.701Z,1.43
2023-08-26T18:10:35.904Z,1.70
2023-08-26T18:13:03.786Z,1.20
2023-08-26T18:15:32.253Z,1.40
2023-08-26T18:17:59.371Z,1.43
2023-08-26T18:20:26.533Z,1.53
2023-08-26T18:22:53.654Z,1.47
2023-08-26T18:25:20.866Z,1.50
2023-08-26T18:27:48.063Z,1.30
2023-08-26T18:30:15.138Z,1.47
2023-08-26T18:32:43.596Z,1.87
2023-08-26T18:35:10.735Z,1.70
2023-08-26T18:37:37.861Z,1.60
2023-08-26T18:40:05.446Z,2.07
2023-08-26T18:42:32.549Z,2.23
2023-08-26T18:44:59.655Z,1.80
2023-08-26T18:47:27.337Z,2.00
2023-08-26T18:49:55.743Z,2.03
2023-08-26T18:52:22.790Z,1.90
2023-08-26T18:54:50.017Z,1.80
2023-08-26T18:57:17.072Z,1.87
2023-08-26T18:59:44.176Z,2.30
2023-08-26T19:02:11.299Z,2.03
2023-08-26T19:04:38.383Z,1.77
2023-08-26T19:07:06.780Z,1.50
2023-08-26T19:09:33.932Z,1.90
2023-08-26T19:12:01.080Z,1.40
2023-08-26T19:14:28.161Z,1.53
2023-08-26T19:16:55.347Z,2.37
2023-08-26T19:19:22.532Z,1.60
2023-08-26T19:21:49.700Z,1.60
2023-08-26T19:24:18.110Z,2.00
2023-08-26T19:26:45.374Z,1.70
2023-08-26T19:29:12.534Z,1.60
2023-08-26T19:31:39.632Z,1.60
2023-08-26T19:34:06.690Z,1.80
2023-08-26T19:36:34.743Z,1.87
2023-08-26T19:39:01.849Z,1.67
2023-08-26T19:41:30.281Z,1.73
2023-08-26T19:43:57.409Z,1.50
2023-08-26T19:46:24.584Z,1.80
2023-08-26T19:48:56.492Z,2.00
2023-08-26T19:51:24.258Z,2.03
2023-08-26T19:53:51.386Z,2.20
2023-08-26T19:56:18.499Z,2.30
2023-08-26T19:58:46.928Z,2.40
2023-08-26T20:01:14.133Z,2.60
2023-08-26T20:03:41.427Z,1.90
2023-08-26T20:06:08.581Z,2.30
2023-08-26T20:08:35.642Z,3.00
2023-08-26T20:11:02.756Z,2.67
2023-08-26T20:13:29.816Z,2.77
2023-08-26T20:15:58.258Z,2.80
2023-08-26T20:18:25.324Z,2.90
2023-08-26T20:20:56.948Z,2.53
2023-08-26T20:23:24.034Z,2.10
2023-08-26T20:25:55.546Z,2.30
2023-08-26T20:28:22.650Z,2.30
2023-08-26T20:30:53.091Z,1.67
2023-08-26T20:33:21.503Z,2.17
2023-08-26T20:35:49.705Z,1.80
2023-08-26T20:38:17.755Z,1.87
2023-08-26T20:40:44.831Z,1.97
2023-08-26T20:43:11.928Z,1.93
2023-08-26T20:45:39.102Z,2.07
2023-08-26T20:48:06.444Z,2.03
2023-08-26T20:50:34.986Z,1.87
2023-08-26T20:53:03.212Z,2.50
2023-08-26T20:55:30.316Z,2.10
2023-08-26T20:57:57.426Z,1.77
2023-08-26T21:00:24.581Z,1.90
2023-08-26T21:02:51.749Z,1.80
2023-08-26T21:05:18.850Z,1.90
2023-08-26T21:07:47.324Z,1.93
2023-08-26T21:10:14.435Z,2.77
2023-08-26T21:12:41.495Z,2.30
2023-08-26T21:15:09.088Z,2.80
2023-08-26T21:17:36.227Z,3.00
2023-08-26T21:20:03.398Z,1.67
2023-08-26T21:22:30.648Z,2.80
2023-08-26T21:24:59.085Z,2.60
2023-08-26T21:27:26.209Z,2.60
2023-08-26T21:29:53.268Z,2.23
2023-08-26T21:32:20.362Z,2.57
2023-08-26T21:34:47.427Z,2.83
2023-08-26T21:37:14.556Z,2.70
2023-08-26T21:39:41.636Z,2.50
2023-08-26T21:42:10.084Z,2.90
2023-08-26T21:44:37.218Z,2.27
2023-08-26T21:47:04.593Z,2.90
2023-08-26T21:49:31.719Z,2.57
2023-08-26T21:51:58.879Z,2.43
2023-08-26T21:54:25.998Z,3.20
2023-08-26T21:56:53.111Z,2.30
2023-08-26T21:59:21.532Z,2.73
2023-08-26T22:01:48.601Z,2.77
2023-08-26T22:04:15.665Z,2.30
2023-08-26T22:06:42.714Z,2.83
2023-08-26T22:09:09.950Z,2.63
2023-08-26T22:11:37.092Z,2.30
2023-08-26T22:14:04.195Z,2.80
2023-08-26T22:16:32.642Z,2.57
2023-08-26T22:18:59.781Z,2.80
2023-08-26T22:21:26.908Z,2.53
2023-08-26T22:23:54.068Z,2.67
2023-08-26T22:26:21.161Z,2.50
2023-08-26T22:28:48.328Z,3.17
2023-08-26T22:31:15.601Z,2.87
2023-08-26T22:33:44.023Z,3.10
2023-08-26T22:36:11.135Z,2.40
2023-08-26T22:38:38.187Z,2.83
2023-08-26T22:41:05.264Z,3.50
2023-08-26T22:43:32.365Z,3.00
2023-08-26T22:45:59.822Z,2.77
2023-08-26T22:48:26.951Z,2.73
2023-08-26T22:50:55.444Z,2.60
2023-08-26T22:53:22.545Z,2.60
2023-08-26T22:55:49.720Z,2.90
2023-08-26T22:58:16.841Z,2.90
2023-08-26T23:00:44.212Z,2.90
2023-08-26T23:03:11.517Z,3.20
2023-08-26T23:05:39.113Z,3.67
2023-08-26T23:08:07.964Z,3.00
2023-08-26T23:10:35.210Z,3.27
2023-08-26T23:13:02.365Z,3.30
2023-08-26T23:15:29.534Z,3.10
2023-08-26T23:17:56.651Z,3.10
2023-08-26T23:20:23.856Z,2.83
2023-08-26T23:22:50.956Z,3.20
2023-08-26T23:25:19.444Z,3.13
2023-08-26T23:27:46.563Z,3.00
2023-08-26T23:30:14.029Z,3.80
2023-08-26T23:32:41.151Z,3.57
2023-08-26T23:35:08.724Z,3.43
2023-08-26T23:37:35.818Z,3.13
2023-08-26T23:40:02.885Z,3.40
2023-08-26T23:42:31.262Z,3.27
2023-08-26T23:44:58.322Z,3.70
2023-08-26T23:47:25.389Z,3.73
2023-08-26T23:49:52.530Z,3.73
2023-08-26T23:52:22.397Z,3.40
2023-08-26T23:54:49.557Z,3.80
2023-08-26T23:57:16.652Z,3.70
2023-08-26T23:59:45.103Z,3.57
